Athelstane, WI

10:14 AM CST on January 25, 2015 (GMT -0600)
Athelstane Township | Change Station
CLOSE
Current Station
Personal Weather Station
Location: Athelstane, WI
Elevation: 966 ft
Nearby Weather Stations

Elev 966 ft 45.40 °N, 88.12 °W | Updated 4 seconds ago

Overcast
Overcast
18.0 °F
Feels Like 9 °F
N
6.7
Wind Variable Wind from East
Gusts 7.4 mph

Today
High -- | Low -- °F
--% Chance of Precip.
Yesterday
High -- | Low -- °F
Precip. -- in
7:21 AM 4:49 PM
Waxing Crescent, 33% visible
Pressure 30.07 in
Visibility 9.0 miles
Clouds Overcast 2300 ft
Windchill 9 °F
Dew Point 6 °F
Humidity 59%
Rainfall 0.00 in
Snow Depth Not available.
UV 0 out of 12
Pollen .10 out of 12
Air Quality Not available.
Flu Activity Not available.
METAR KIMT 251554Z AUTO 04005KT 9SM OVC023 M09/M14 A3000 RMK AO2 SNE07 SLP182 P0000 T10891139

More Conditions Fewer Conditions

Pressure 30.07 in
Visibility 9.0 miles
Clouds Overcast 2300 ft
Windchill 9 °F
Dew Point 6 °F
Humidity 59%
Rainfall 0.00 in
Snow Depth Not available.
UV 0 out of 12
Pollen .10 out of 12
Air Quality Not available.
Flu Activity Not available.
METAR KIMT 251554Z AUTO 04005KT 9SM OVC023 M09/M14 A3000 RMK AO2 SNE07 SLP182 P0000 T10891139

More Conditions Fewer Conditions

10-Day Weather Forecast

Almanac

Astronomy

Jan. 25, 2015 Rise Set
Actual Time
Civil Twilight
Nautical Twilight
Astronomical Twilight
Moon
Length of Visible Light
Length of Day
Tomorrow will be .
, % of the Moon is Illuminated

Today's Extremes

State Highs State Lows

Community

WunderPhotos

Upload Photos

1,789,939 photos uploaded!

WunderBlogs® & News

Nearby

Air Quality

  Air Quality AQ Index Pollutant
Not available.

Snow Depth

Station Depth Elevation

Earthquake Activity

City Distance Mag. Time & Date
Minimum magnitude displayed is 2.5.

Coastal Water Temperatures

Place Temperature

Nearby Weather Stations